createdAt,value
2023-01-23T04:11:29.299Z,0.86
2023-01-23T04:13:56.255Z,0.83
2023-01-23T04:16:23.494Z,0.78
2023-01-23T04:18:51.128Z,0.86
2023-01-23T04:21:18.041Z,0.94
2023-01-23T04:23:48.115Z,0.56
2023-01-23T04:26:14.759Z,0.63
2023-01-23T04:28:41.589Z,0.79
2023-01-23T04:31:09.461Z,0.84
2023-01-23T04:33:36.479Z,0.82
2023-01-23T04:36:06.413Z,0.85
2023-01-23T04:38:34.454Z,0.92
2023-01-23T04:41:25.997Z,1.06
2023-01-23T04:44:20.052Z,1.07
2023-01-23T04:47:00.860Z,1.00
2023-01-23T04:49:28.777Z,0.94
2023-01-23T04:51:55.411Z,1.03
2023-01-23T04:54:24.946Z,0.94
2023-01-23T04:56:52.155Z,1.01
2023-01-23T04:59:21.547Z,0.91
2023-01-23T05:01:48.635Z,0.98
2023-01-23T05:04:16.920Z,0.89
2023-01-23T05:06:46.721Z,1.01
2023-01-23T05:09:13.581Z,1.06
2023-01-23T05:11:48.414Z,1.09
2023-01-23T05:14:16.208Z,1.05
2023-01-23T05:16:43.441Z,1.14
2023-01-23T05:19:28.500Z,1.05
2023-01-23T05:21:57.233Z,1.00
2023-01-23T05:24:24.935Z,1.07
2023-01-23T05:26:54.119Z,1.03
2023-01-23T05:29:20.855Z,1.05
2023-01-23T05:31:55.824Z,1.06
2023-01-23T05:34:37.648Z,0.96
2023-01-23T05:37:11.730Z,0.99
2023-01-23T05:39:39.974Z,1.03
2023-01-23T05:42:09.531Z,1.04
2023-01-23T05:44:56.559Z,0.76
2023-01-23T05:47:44.068Z,1.09
2023-01-23T05:50:15.574Z,1.05
2023-01-23T05:52:43.643Z,1.01
2023-01-23T05:55:10.853Z,0.95
2023-01-23T05:57:39.462Z,0.91
2023-01-23T06:00:44.145Z,0.88
2023-01-23T06:03:30.711Z,0.93
2023-01-23T06:06:06.579Z,0.95
2023-01-23T06:08:33.209Z,0.84
2023-01-23T06:11:00.454Z,0.86
2023-01-23T06:13:27.755Z,0.84
2023-01-23T06:15:55.274Z,0.92
2023-01-23T06:18:23.382Z,0.87
2023-01-23T06:20:49.942Z,0.90
2023-01-23T06:23:16.840Z,0.94
2023-01-23T06:25:43.518Z,0.81
2023-01-23T06:28:11.765Z,0.76
2023-01-23T06:30:38.414Z,0.90
2023-01-23T06:33:15.722Z,0.94
2023-01-23T06:35:42.532Z,0.96
2023-01-23T06:38:09.039Z,0.92
2023-01-23T06:40:35.786Z,1.01
2023-01-23T06:43:26.317Z,0.90
2023-01-23T06:45:54.215Z,1.02
2023-01-23T06:48:21.798Z,1.02
2023-01-23T06:50:49.208Z,0.96
2023-01-23T06:53:17.420Z,0.95
2023-01-23T06:55:45.081Z,1.02
2023-01-23T06:58:13.467Z,1.04
2023-01-23T07:00:40.606Z,0.99
2023-01-23T07:03:14.999Z,1.07
2023-01-23T07:05:43.304Z,1.13
2023-01-23T07:08:11.076Z,1.23
2023-01-23T07:10:38.351Z,1.30
2023-01-23T07:13:06.509Z,1.31
2023-01-23T07:15:34.105Z,1.28
2023-01-23T07:18:01.344Z,1.21
2023-01-23T07:20:28.115Z,1.30
2023-01-23T07:22:59.017Z,1.32
2023-01-23T07:25:25.781Z,1.27
2023-01-23T07:27:52.329Z,1.23
2023-01-23T07:30:19.388Z,1.11
2023-01-23T07:32:45.984Z,1.24
2023-01-23T07:35:12.547Z,1.20
2023-01-23T07:37:39.030Z,1.18
2023-01-23T07:40:06.043Z,1.25
2023-01-23T07:42:32.505Z,1.25
2023-01-23T07:44:58.956Z,1.17
2023-01-23T07:47:25.499Z,1.15
2023-01-23T07:49:52.015Z,1.29
2023-01-23T07:52:18.567Z,1.23
2023-01-23T07:54:45.032Z,1.26
2023-01-23T07:57:11.630Z,1.18
2023-01-23T07:59:38.171Z,1.27
2023-01-23T08:02:04.690Z,1.35
2023-01-23T08:04:31.162Z,1.33
2023-01-23T08:06:57.662Z,1.34
2023-01-23T08:09:24.164Z,1.41
2023-01-23T08:11:52.409Z,1.41
2023-01-23T08:14:19.472Z,1.44
2023-01-23T08:16:50.678Z,1.40
2023-01-23T08:19:17.907Z,1.49
2023-01-23T08:21:44.761Z,1.50
2023-01-23T08:24:12.694Z,1.34
2023-01-23T08:26:40.194Z,1.54
2023-01-23T08:29:06.679Z,1.58
2023-01-23T08:31:33.178Z,1.56
2023-01-23T08:33:59.728Z,1.35
2023-01-23T08:36:26.371Z,1.53
2023-01-23T08:38:52.928Z,1.58
2023-01-23T08:41:19.554Z,1.61
2023-01-23T08:43:46.105Z,1.55
2023-01-23T08:46:12.777Z,1.62
2023-01-23T08:48:39.575Z,1.87
2023-01-23T08:51:08.903Z,1.90
2023-01-23T08:53:36.480Z,2.02
2023-01-23T08:56:07.085Z,2.01
2023-01-23T08:58:34.436Z,2.02
2023-01-23T09:01:01.096Z,2.01
2023-01-23T09:03:28.442Z,2.03
2023-01-23T09:05:54.995Z,1.96
2023-01-23T09:08:21.595Z,2.01
2023-01-23T09:10:48.062Z,2.07
2023-01-23T09:13:14.609Z,2.11
2023-01-23T09:15:41.176Z,2.23
2023-01-23T09:18:07.746Z,2.35
2023-01-23T09:20:34.274Z,2.53
2023-01-23T09:23:00.937Z,2.68
2023-01-23T09:25:27.499Z,3.12
2023-01-23T09:27:53.991Z,3.13
2023-01-23T09:30:20.739Z,2.96
2023-01-23T09:32:47.501Z,2.94
2023-01-23T09:35:14.052Z,2.71
2023-01-23T09:37:59.045Z,2.78
2023-01-23T09:40:30.386Z,2.99
2023-01-23T09:43:10.986Z,3.07
2023-01-23T09:45:41.291Z,3.19
2023-01-23T09:48:30.786Z,3.23
2023-01-23T09:51:26.794Z,3.57
2023-01-23T09:53:59.102Z,4.27
2023-01-23T09:56:38.210Z,5.24
2023-01-23T09:59:12.715Z,4.94
2023-01-23T10:01:39.488Z,4.51
2023-01-23T10:04:10.413Z,4.19
2023-01-23T10:06:49.432Z,4.26
2023-01-23T10:09:24.716Z,4.20
2023-01-23T10:11:54.170Z,4.26
2023-01-23T10:14:39.037Z,4.25
2023-01-23T10:17:22.313Z,4.62
2023-01-23T10:20:16.540Z,4.95
2023-01-23T10:22:58.409Z,4.85
2023-01-23T10:25:27.905Z,5.16
2023-01-23T10:27:59.493Z,5.13
2023-01-23T10:30:33.433Z,5.32
2023-01-23T10:33:19.344Z,5.26
2023-01-23T10:35:53.051Z,5.91
2023-01-23T10:38:41.534Z,6.03
2023-01-23T10:41:15.106Z,6.71
2023-01-23T10:43:42.490Z,6.94
2023-01-23T10:46:18.170Z,7.31
2023-01-23T10:48:46.217Z,7.18
2023-01-23T10:51:28.667Z,7.66
2023-01-23T10:54:30.262Z,7.77
2023-01-23T10:57:01.643Z,7.18
2023-01-23T10:59:31.223Z,6.84
2023-01-23T11:02:02.381Z,6.53
2023-01-23T11:04:35.057Z,6.57
2023-01-23T11:07:06.886Z,6.62
2023-01-23T11:09:33.469Z,6.39
2023-01-23T11:12:06.555Z,5.86
2023-01-23T11:14:33.315Z,5.85
2023-01-23T11:17:13.710Z,6.57
2023-01-23T11:19:42.252Z,6.64
2023-01-23T11:22:37.503Z,6.92
2023-01-23T11:25:32.518Z,6.81
2023-01-23T11:28:01.910Z,6.16
2023-01-23T11:30:41.217Z,6.48
2023-01-23T11:33:07.717Z,6.27
2023-01-23T11:35:34.168Z,6.71
2023-01-23T11:38:03.803Z,6.83
2023-01-23T11:40:30.359Z,6.78
2023-01-23T11:42:56.980Z,5.90
2023-01-23T11:45:29.261Z,6.09
2023-01-23T11:48:17.103Z,5.92
2023-01-23T11:50:54.953Z,6.09
2023-01-23T11:53:42.971Z,6.14
2023-01-23T11:56:21.939Z,6.13
2023-01-23T11:59:20.734Z,5.44
2023-01-23T12:02:15.003Z,5.88
2023-01-23T12:04:53.330Z,5.48
2023-01-23T12:07:24.432Z,5.23
2023-01-23T12:09:59.980Z,5.21
2023-01-23T12:12:26.498Z,4.80
2023-01-23T12:14:56.003Z,4.71
2023-01-23T12:17:40.592Z,4.81
2023-01-23T12:20:25.727Z,5.50
2023-01-23T12:23:00.279Z,6.39
2023-01-23T12:25:35.376Z,7.47
2023-01-23T12:28:32.480Z,6.43
2023-01-23T12:31:43.528Z,16.96
2023-01-23T12:34:25.403Z,21.31
2023-01-23T12:37:19.361Z,18.28
2023-01-23T12:40:17.070Z,21.58
2023-01-23T12:42:57.042Z,23.42
2023-01-23T12:45:26.946Z,17.94
2023-01-23T12:48:28.069Z,15.24
2023-01-23T12:51:14.943Z,11.32
2023-01-23T12:53:44.397Z,8.91
2023-01-23T12:56:16.706Z,9.84
2023-01-23T12:58:56.234Z,8.38
2023-01-23T13:01:55.176Z,7.62
2023-01-23T13:04:46.775Z,6.83
2023-01-23T13:07:21.655Z,6.34
2023-01-23T13:10:03.652Z,5.75
2023-01-23T13:12:30.695Z,5.97
2023-01-23T13:15:17.212Z,6.34
2023-01-23T13:18:13.998Z,6.34
2023-01-23T13:21:16.216Z,6.54
2023-01-23T13:23:43.345Z,6.75
2023-01-23T13:26:15.901Z,6.73
2023-01-23T13:28:56.604Z,7.32
2023-01-23T13:31:41.149Z,6.53
2023-01-23T13:34:16.834Z,6.96
2023-01-23T13:36:45.407Z,6.98
2023-01-23T13:39:14.995Z,6.69
2023-01-23T13:41:42.008Z,6.47
2023-01-23T13:44:22.947Z,6.04
2023-01-23T14:21:48.883Z,5.97
2023-01-23T14:24:29.293Z,5.74
2023-01-23T14:27:07.238Z,5.40
2023-01-23T14:29:35.169Z,5.05
2023-01-23T14:32:01.932Z,4.82
2023-01-23T14:34:28.554Z,5.03
2023-01-23T14:37:06.261Z,5.04
2023-01-23T14:39:35.295Z,4.98
2023-01-23T14:42:05.391Z,5.07
2023-01-23T14:44:45.355Z,5.01
2023-01-23T14:47:17.857Z,4.89
2023-01-23T14:49:47.059Z,4.68
2023-01-23T14:52:26.639Z,4.54
2023-01-23T14:54:54.392Z,4.63
2023-01-23T14:57:23.927Z,4.76
2023-01-23T14:59:55.107Z,4.76
2023-01-23T15:02:33.663Z,4.65
2023-01-23T15:05:12.623Z,4.32
2023-01-23T15:07:45.187Z,4.20
2023-01-23T15:10:25.371Z,4.29
2023-01-23T15:12:54.175Z,4.38
2023-01-23T15:15:22.698Z,4.32
2023-01-23T15:17:50.265Z,4.29
2023-01-23T15:20:32.883Z,4.14
2023-01-23T15:23:20.771Z,4.17
2023-01-23T15:25:57.378Z,4.01
2023-01-23T15:28:37.437Z,4.02
2023-01-23T15:31:04.375Z,3.99
2023-01-23T15:33:37.649Z,3.99
2023-01-23T15:36:05.985Z,3.99
2023-01-23T15:38:33.101Z,3.91
2023-01-23T15:41:00.112Z,3.78
2023-01-23T15:43:26.603Z,3.59
2023-01-23T15:45:53.754Z,3.41
2023-01-23T15:48:20.517Z,3.27
2023-01-23T15:50:47.131Z,3.06
2023-01-23T15:53:14.811Z,2.84
2023-01-23T15:55:41.536Z,2.80
2023-01-23T15:58:13.559Z,2.76
2023-01-23T16:00:40.411Z,2.47
2023-01-23T16:03:07.104Z,2.58
2023-01-23T16:05:36.403Z,2.58
2023-01-23T16:08:12.053Z,2.44
2023-01-23T16:10:39.546Z,2.43
2023-01-23T16:13:07.744Z,2.45
2023-01-23T16:15:35.569Z,2.29
2023-01-23T16:18:04.471Z,2.18
2023-01-23T16:20:38.418Z,2.09
2023-01-23T16:23:19.732Z,2.06
2023-01-23T16:25:46.917Z,2.07
2023-01-23T16:28:21.430Z,2.11
2023-01-23T16:30:50.652Z,2.22
2023-01-23T16:33:17.977Z,2.10
2023-01-23T16:35:45.217Z,2.25
2023-01-23T16:38:19.897Z,2.36
2023-01-23T16:40:46.485Z,2.44
2023-01-23T16:43:12.958Z,2.43
2023-01-23T16:45:39.503Z,2.58
2023-01-23T16:48:07.471Z,2.43
2023-01-23T16:50:50.398Z,2.56
2023-01-23T16:53:29.879Z,2.60
2023-01-23T16:55:58.228Z,2.58
2023-01-23T16:58:28.534Z,2.48
2023-01-23T17:01:01.066Z,2.50
2023-01-23T17:03:32.674Z,2.44
2023-01-23T17:05:59.296Z,2.52
2023-01-23T17:08:26.306Z,2.57
2023-01-23T17:10:56.628Z,2.59
2023-01-23T17:13:23.580Z,2.58
2023-01-23T17:15:53.180Z,2.69
2023-01-23T17:18:25.789Z,2.59
2023-01-23T17:20:56.198Z,2.60
2023-01-23T17:23:24.283Z,2.75
2023-01-23T17:26:00.516Z,2.86
2023-01-23T17:28:28.229Z,2.59
2023-01-23T17:30:55.658Z,2.75
2023-01-23T17:33:27.084Z,2.72
2023-01-23T17:35:54.214Z,2.69
2023-01-23T17:38:23.667Z,2.70
2023-01-23T17:40:50.702Z,2.76
2023-01-23T17:43:18.779Z,2.69
2023-01-23T17:45:47.502Z,2.59
2023-01-23T17:48:23.327Z,2.53
2023-01-23T17:50:49.994Z,2.66
2023-01-23T17:53:17.847Z,2.66
2023-01-23T17:55:48.566Z,2.61
2023-01-23T17:58:15.833Z,2.67
2023-01-23T18:00:44.510Z,2.65
2023-01-23T18:03:17.760Z,2.60
2023-01-23T18:06:02.615Z,2.57
2023-01-23T18:08:49.421Z,2.69
2023-01-23T18:11:39.033Z,2.67
2023-01-23T18:14:28.884Z,2.57
2023-01-23T18:17:28.993Z,2.68
2023-01-23T18:20:18.469Z,2.70
2023-01-23T18:23:06.974Z,2.63
2023-01-23T18:26:22.852Z,2.60
2023-01-23T18:29:21.795Z,2.63
2023-01-23T18:32:14.472Z,2.63
2023-01-23T18:35:29.110Z,2.54
2023-01-23T18:38:37.683Z,2.66
2023-01-23T18:41:27.021Z,2.65
2023-01-23T18:44:23.591Z,2.70
2023-01-23T18:47:19.978Z,2.69
2023-01-23T18:50:08.030Z,2.66
2023-01-23T18:53:32.283Z,2.72
2023-01-23T18:56:57.662Z,2.67
2023-01-23T19:00:15.252Z,2.83
2023-01-23T19:03:12.351Z,2.79
2023-01-23T19:05:59.566Z,2.75
2023-01-23T19:08:47.855Z,2.79
2023-01-23T19:11:58.625Z,2.82
2023-01-23T19:15:29.962Z,2.86
2023-01-23T19:18:48.693Z,2.89
2023-01-23T19:21:35.957Z,2.85
2023-01-23T19:24:23.029Z,2.89
2023-01-23T19:27:23.549Z,2.94
2023-01-23T19:30:12.226Z,2.94
2023-01-23T19:32:59.043Z,2.96
2023-01-23T19:35:47.232Z,2.95
2023-01-23T19:38:34.001Z,2.99
2023-01-23T19:41:24.121Z,2.94
2023-01-23T19:44:19.257Z,3.00
2023-01-23T19:47:06.717Z,2.90
2023-01-23T19:49:53.569Z,2.92
2023-01-23T19:52:40.353Z,2.84
2023-01-23T19:55:30.455Z,2.84
2023-01-23T19:58:17.217Z,2.90
2023-01-23T20:01:16.813Z,2.75
2023-01-23T20:04:05.004Z,2.84
2023-01-23T20:06:52.519Z,2.72
2023-01-23T20:09:39.594Z,2.87
2023-01-23T20:12:26.660Z,2.94
2023-01-23T20:15:14.733Z,2.91
2023-01-23T20:18:01.619Z,2.83
2023-01-23T20:20:48.422Z,2.68
2023-01-23T20:23:35.200Z,2.75
2023-01-23T20:26:23.138Z,2.95
2023-01-23T20:29:11.649Z,2.98
2023-01-23T20:31:58.485Z,2.94
2023-01-23T20:34:45.380Z,3.03
